Tsurutama Maru No.2 — JD3586 — position and weather

sailwx.info

Track history (hours):
 
Tides and Currents Weather Stations Pressure Air Temp Water Temp Dewpoint Dewpoint Depression Visibility Wind Speed Wind Dir Waves Ship Positions

Tsurutama Maru No.2

Last reported at 2017-Sep-09 12:35 UTC. Time now 2017-Sep-21 17:41 UTC.
Position N 35°00' E 140°12'.
Warning: this ship's position is 12 days out of date.

Length 104 m; draft 5.3 m.

Type: Tanker. MMSI: 431004883.

Date/timePositionNaut miles runAvg speedWind from/ knotsBaromVisibWave heightAir tempDewpointWater temp
2017-Sep-09 12:35N 35°00' E 140°12'414.9
2017-Sep-09 12:19N 34°58' E 140°08'714.3
2017-Sep-09 11:50N 34°54' E 140°01'714.1
2017-Sep-09 11:21N 34°52' E 139°53'514.7
2017-Sep-09 11:00N 34°53' E 139°47'714.5
2017-Sep-09 10:30N 34°60' E 139°43'713.5
2017-Sep-09 10:00N 35°06' E 139°44'713.7
2017-Sep-09 09:30N 35°13' E 139°46'611.5
2017-Sep-09 09:00N 35°18' E 139°44'612.7
2017-Sep-09 08:30N 35°25' E 139°43'613.0
2017-Sep-09 08:01N 35°30' E 139°48'2 2.9
2017-Sep-09 07:29N 35°31' E 139°46'0 0.0
2017-Sep-09 06:59N 35°31' E 139°46'0 0.0
2017-Sep-09 06:26N 35°31' E 139°46'0 0.0
2017-Sep-09 05:38N 35°31' E 139°46'0 0.0
2017-Sep-09 05:23N 35°31' E 139°46'0 0.0
2017-Sep-09 04:47N 35°31' E 139°46'0 0.0
2017-Sep-09 04:17N 35°31' E 139°46'0 0.0
2017-Sep-09 03:59N 35°31' E 139°46'0 0.0
2017-Sep-09 03:29N 35°31' E 139°46'0 0.0
2017-Sep-09 02:59N 35°31' E 139°46'0 0.0
2017-Sep-09 02:29N 35°31' E 139°46'0 0.0
2017-Sep-09 01:59N 35°31' E 139°46'0 0.0
2017-Sep-09 01:29N 35°31' E 139°46'0 0.0
2017-Sep-09 00:53N 35°31' E 139°46'0 0.0
2017-Sep-09 00:23N 35°31' E 139°46'0 0.0
2017-Sep-08 23:59N 35°31' E 139°46'0 0.0
2017-Sep-08 23:29N 35°31' E 139°46'0 0.8
2017-Sep-08 23:00N 35°31' E 139°46'4 8.0
2017-Sep-08 22:30N 35°28' E 139°42'2 3.4
2017-Sep-08 22:00N 35°27' E 139°44'3 5.2
2017-Sep-08 21:31N 35°26' E 139°47'5 9.7
2017-Sep-08 21:00N 35°21' E 139°45'510.4
2017-Sep-08 20:30N 35°16' E 139°47'510.8
2017-Sep-08 20:00N 35°11' E 139°46'611.4
2017-Sep-08 19:30N 35°05' E 139°44'612.9
2017-Sep-08 19:00N 34°59' E 139°43'611.6
2017-Sep-08 18:29N 34°53' E 139°46'  
Track history (hours):
 
Tides and Currents Weather Stations Pressure Air Temp Water Temp Dewpoint Dewpoint Depression Visibility Wind Speed Wind Dir Waves Ship Positions

Tsurutama Maru No.2

Last reported at 2017-Sep-09 12:35 UTC. Time now 2017-Sep-21 17:41 UTC.
Position N 35°00' E 140°12'.
Warning: this ship's position is 12 days out of date.

Length 104 m; draft 5.3 m.

Type: Tanker. MMSI: 431004883.

Date/timePositionNaut miles runAvg speedWind from/ knotsBaromVisibWave heightAir tempDewpointWater temp
2017-Sep-09 12:35N 35°00' E 140°12'414.9
2017-Sep-09 12:19N 34°58' E 140°08'714.3
2017-Sep-09 11:50N 34°54' E 140°01'714.1
2017-Sep-09 11:21N 34°52' E 139°53'514.7
2017-Sep-09 11:00N 34°53' E 139°47'714.5
2017-Sep-09 10:30N 34°60' E 139°43'713.5
2017-Sep-09 10:00N 35°06' E 139°44'713.7
2017-Sep-09 09:30N 35°13' E 139°46'611.5
2017-Sep-09 09:00N 35°18' E 139°44'612.7
2017-Sep-09 08:30N 35°25' E 139°43'613.0
2017-Sep-09 08:01N 35°30' E 139°48'2 2.9
2017-Sep-09 07:29N 35°31' E 139°46'0 0.0
2017-Sep-09 06:59N 35°31' E 139°46'0 0.0
2017-Sep-09 06:26N 35°31' E 139°46'0 0.0
2017-Sep-09 05:38N 35°31' E 139°46'0 0.0
2017-Sep-09 05:23N 35°31' E 139°46'0 0.0
2017-Sep-09 04:47N 35°31' E 139°46'0 0.0
2017-Sep-09 04:17N 35°31' E 139°46'0 0.0
2017-Sep-09 03:59N 35°31' E 139°46'0 0.0
2017-Sep-09 03:29N 35°31' E 139°46'0 0.0
2017-Sep-09 02:59N 35°31' E 139°46'0 0.0
2017-Sep-09 02:29N 35°31' E 139°46'0 0.0
2017-Sep-09 01:59N 35°31' E 139°46'0 0.0
2017-Sep-09 01:29N 35°31' E 139°46'0 0.0
2017-Sep-09 00:53N 35°31' E 139°46'0 0.0
2017-Sep-09 00:23N 35°31' E 139°46'0 0.0
2017-Sep-08 23:59N 35°31' E 139°46'0 0.0
2017-Sep-08 23:29N 35°31' E 139°46'0 0.8
2017-Sep-08 23:00N 35°31' E 139°46'4 8.0
2017-Sep-08 22:30N 35°28' E 139°42'2 3.4
2017-Sep-08 22:00N 35°27' E 139°44'3 5.2
2017-Sep-08 21:31N 35°26' E 139°47'5 9.7
2017-Sep-08 21:00N 35°21' E 139°45'510.4
2017-Sep-08 20:30N 35°16' E 139°47'510.8
2017-Sep-08 20:00N 35°11' E 139°46'611.4
2017-Sep-08 19:30N 35°05' E 139°44'612.9
2017-Sep-08 19:00N 34°59' E 139°43'611.6
2017-Sep-08 18:29N 34°53' E 139°46'  

Dump ship's entire track history